sensor_id;sensor_type;location;lat;lon;timestamp;temperature;humidity
7002;DHT22;3541;53.230;10.518;2022-10-16T00:00:20;15.30;99.90
7002;DHT22;3541;53.230;10.518;2022-10-16T00:02:47;15.20;99.90
7002;DHT22;3541;53.230;10.518;2022-10-16T00:05:13;15.20;99.90
7002;DHT22;3541;53.230;10.518;2022-10-16T00:07:41;15.20;99.90
7002;DHT22;3541;53.230;10.518;2022-10-16T00:10:08;15.20;99.90
7002;DHT22;3541;53.230;10.518;2022-10-16T00:12:35;15.20;99.90
7002;DHT22;3541;53.230;10.518;2022-10-16T00:15:02;15.10;99.90
7002;DHT22;3541;53.230;10.518;2022-10-16T00:17:29;15.10;99.90
7002;DHT22;3541;53.230;10.518;2022-10-16T00:19:55;15.10;99.90
7002;DHT22;3541;53.230;10.518;2022-10-16T00:22:22;15.10;99.90
7002;DHT22;3541;53.230;10.518;2022-10-16T00:24:50;15.10;99.90
7002;DHT22;3541;53.230;10.518;2022-10-16T00:27:17;15.10;99.90
7002;DHT22;3541;53.230;10.518;2022-10-16T00:29:44;15.10;99.90
7002;DHT22;3541;53.230;10.518;2022-10-16T00:32:11;15.00;99.90
7002;DHT22;3541;53.230;10.518;2022-10-16T00:34:37;15.00;99.90
7002;DHT22;3541;53.230;10.518;2022-10-16T00:37:04;15.00;99.90
7002;DHT22;3541;53.230;10.518;2022-10-16T00:39:31;15.00;99.90
7002;DHT22;3541;53.230;10.518;2022-10-16T00:41:59;14.90;99.90
7002;DHT22;3541;53.230;10.518;2022-10-16T00:44:47;14.80;99.90
7002;DHT22;3541;53.230;10.518;2022-10-16T00:47:19;14.80;99.90
7002;DHT22;3541;53.230;10.518;2022-10-16T00:49:47;14.80;99.90
7002;DHT22;3541;53.230;10.518;2022-10-16T00:52:16;14.80;99.90
7002;DHT22;3541;53.230;10.518;2022-10-16T00:54:43;14.90;99.90
7002;DHT22;3541;53.230;10.518;2022-10-16T00:57:13;14.90;99.90
7002;DHT22;3541;53.230;10.518;2022-10-16T00:59:41;14.80;99.90
7002;DHT22;3541;53.230;10.518;2022-10-16T01:02:13;14.80;99.90
7002;DHT22;3541;53.230;10.518;2022-10-16T01:04:42;14.80;99.90
7002;DHT22;3541;53.230;10.518;2022-10-16T01:07:14;14.80;99.90
7002;DHT22;3541;53.230;10.518;2022-10-16T01:09:52;14.80;99.90
7002;DHT22;3541;53.230;10.518;2022-10-16T01:12:30;14.80;99.90
7002;DHT22;3541;53.230;10.518;2022-10-16T01:15:04;14.80;99.90
7002;DHT22;3541;53.230;10.518;2022-10-16T01:17:36;14.70;99.90
7002;DHT22;3541;53.230;10.518;2022-10-16T01:20:11;14.70;99.90
7002;DHT22;3541;53.230;10.518;2022-10-16T01:22:53;14.70;99.90
7002;DHT22;3541;53.230;10.518;2022-10-16T01:25:28;14.60;99.90
7002;DHT22;3541;53.230;10.518;2022-10-16T01:27:57;14.60;99.90
7002;DHT22;3541;53.230;10.518;2022-10-16T01:30:28;14.60;99.90
7002;DHT22;3541;53.230;10.518;2022-10-16T01:33:00;14.50;99.90
7002;DHT22;3541;53.230;10.518;2022-10-16T01:35:33;14.50;99.90
7002;DHT22;3541;53.230;10.518;2022-10-16T01:38:04;14.50;99.90
7002;DHT22;3541;53.230;10.518;2022-10-16T01:40:34;14.50;99.90
7002;DHT22;3541;53.230;10.518;2022-10-16T01:43:06;14.40;99.90
7002;DHT22;3541;53.230;10.518;2022-10-16T01:45:34;14.40;99.90
7002;DHT22;3541;53.230;10.518;2022-10-16T01:48:04;14.40;99.90
7002;DHT22;3541;53.230;10.518;2022-10-16T01:50:36;14.50;99.90
7002;DHT22;3541;53.230;10.518;2022-10-16T01:53:05;14.50;99.90
7002;DHT22;3541;53.230;10.518;2022-10-16T01:55:36;14.40;99.90
7002;DHT22;3541;53.230;10.518;2022-10-16T01:58:08;14.30;99.90
7002;DHT22;3541;53.230;10.518;2022-10-16T02:00:37;14.30;99.90
7002;DHT22;3541;53.230;10.518;2022-10-16T02:03:04;14.20;99.90
7002;DHT22;3541;53.230;10.518;2022-10-16T02:05:36;14.30;99.90
7002;DHT22;3541;53.230;10.518;2022-10-16T02:08:04;14.30;99.90
7002;DHT22;3541;53.230;10.518;2022-10-16T02:10:31;14.20;99.90
7002;DHT22;3541;53.230;10.518;2022-10-16T02:13:00;14.20;99.90
7002;DHT22;3541;53.230;10.518;2022-10-16T02:15:29;14.20;99.90
7002;DHT22;3541;53.230;10.518;2022-10-16T02:17:56;14.10;99.90
7002;DHT22;3541;53.230;10.518;2022-10-16T02:20:27;14.10;99.90
7002;DHT22;3541;53.230;10.518;2022-10-16T02:22:54;14.20;99.90
7002;DHT22;3541;53.230;10.518;2022-10-16T02:25:24;14.20;99.90
7002;DHT22;3541;53.230;10.518;2022-10-16T02:27:56;14.10;99.90
7002;DHT22;3541;53.230;10.518;2022-10-16T02:30:27;14.10;99.90
7002;DHT22;3541;53.230;10.518;2022-10-16T02:32:58;14.10;99.90
7002;DHT22;3541;53.230;10.518;2022-10-16T02:35:27;14.10;99.90
7002;DHT22;3541;53.230;10.518;2022-10-16T02:37:55;14.10;99.90
7002;DHT22;3541;53.230;10.518;2022-10-16T02:40:24;14.10;99.90
7002;DHT22;3541;53.230;10.518;2022-10-16T02:42:52;14.00;99.90
7002;DHT22;3541;53.230;10.518;2022-10-16T02:45:19;14.10;99.90
7002;DHT22;3541;53.230;10.518;2022-10-16T02:47:46;14.00;99.90
7002;DHT22;3541;53.230;10.518;2022-10-16T02:50:14;14.00;99.90
7002;DHT22;3541;53.230;10.518;2022-10-16T02:52:41;13.90;99.90
7002;DHT22;3541;53.230;10.518;2022-10-16T02:55:08;13.90;99.90
7002;DHT22;3541;53.230;10.518;2022-10-16T02:57:35;13.90;99.90
7002;DHT22;3541;53.230;10.518;2022-10-16T03:00:03;13.90;99.90
7002;DHT22;3541;53.230;10.518;2022-10-16T03:02:30;13.90;99.90
7002;DHT22;3541;53.230;10.518;2022-10-16T03:04:57;13.90;99.90
7002;DHT22;3541;53.230;10.518;2022-10-16T03:07:25;13.90;99.90
7002;DHT22;3541;53.230;10.518;2022-10-16T03:09:51;13.90;99.90
7002;DHT22;3541;53.230;10.518;2022-10-16T03:12:18;13.90;99.90
7002;DHT22;3541;53.230;10.518;2022-10-16T03:14:45;13.80;99.90
7002;DHT22;3541;53.230;10.518;2022-10-16T03:17:11;13.80;99.90
7002;DHT22;3541;53.230;10.518;2022-10-16T03:19:38;13.80;99.90
7002;DHT22;3541;53.230;10.518;2022-10-16T03:22:05;13.80;99.90
7002;DHT22;3541;53.230;10.518;2022-10-16T03:24:33;13.70;99.90
7002;DHT22;3541;53.230;10.518;2022-10-16T03:26:59;13.80;99.90
7002;DHT22;3541;53.230;10.518;2022-10-16T03:29:26;13.70;99.90
7002;DHT22;3541;53.230;10.518;2022-10-16T03:31:54;13.70;99.90
7002;DHT22;3541;53.230;10.518;2022-10-16T03:34:21;13.80;99.90
7002;DHT22;3541;53.230;10.518;2022-10-16T03:36:48;13.60;99.90
7002;DHT22;3541;53.230;10.518;2022-10-16T03:39:14;13.60;99.90
7002;DHT22;3541;53.230;10.518;2022-10-16T03:41:42;13.60;99.90
7002;DHT22;3541;53.230;10.518;2022-10-16T03:44:09;13.60;99.90
7002;DHT22;3541;53.230;10.518;2022-10-16T03:46:36;13.60;99.90
7002;DHT22;3541;53.230;10.518;2022-10-16T03:49:02;13.60;99.90
7002;DHT22;3541;53.230;10.518;2022-10-16T03:51:29;13.50;99.90
7002;DHT22;3541;53.230;10.518;2022-10-16T03:53:55;13.50;99.90
7002;DHT22;3541;53.230;10.518;2022-10-16T03:56:22;13.60;99.90
7002;DHT22;3541;53.230;10.518;2022-10-16T03:58:50;13.60;99.90
7002;DHT22;3541;53.230;10.518;2022-10-16T04:01:16;13.60;99.90
7002;DHT22;3541;53.230;10.518;2022-10-16T04:03:43;13.50;99.90
7002;DHT22;3541;53.230;10.518;2022-10-16T04:06:10;13.40;99.90
7002;DHT22;3541;53.230;10.518;2022-10-16T04:08:36;13.50;99.90
7002;DHT22;3541;53.230;10.518;2022-10-16T04:11:04;13.40;99.90
7002;DHT22;3541;53.230;10.518;2022-10-16T04:13:31;13.40;99.90
7002;DHT22;3541;53.230;10.518;2022-10-16T04:15:59;13.40;99.90
7002;DHT22;3541;53.230;10.518;2022-10-16T04:18:26;13.40;99.90
7002;DHT22;3541;53.230;10.518;2022-10-16T04:20:53;13.50;99.90
7002;DHT22;3541;53.230;10.518;2022-10-16T04:23:20;13.50;99.90
7002;DHT22;3541;53.230;10.518;2022-10-16T04:25:48;13.50;99.90
7002;DHT22;3541;53.230;10.518;2022-10-16T04:28:14;13.50;99.90
7002;DHT22;3541;53.230;10.518;2022-10-16T04:30:41;13.40;99.90
7002;DHT22;3541;53.230;10.518;2022-10-16T04:33:10;13.50;99.90
7002;DHT22;3541;53.230;10.518;2022-10-16T04:35:38;13.40;99.90
7002;DHT22;3541;53.230;10.518;2022-10-16T04:38:04;13.40;99.90
7002;DHT22;3541;53.230;10.518;2022-10-16T04:40:31;13.40;99.90
7002;DHT22;3541;53.230;10.518;2022-10-16T04:43:01;13.40;99.90
7002;DHT22;3541;53.230;10.518;2022-10-16T04:45:28;13.30;99.90
7002;DHT22;3541;53.230;10.518;2022-10-16T04:47:57;13.30;99.90
7002;DHT22;3541;53.230;10.518;2022-10-16T04:50:25;13.20;99.90
7002;DHT22;3541;53.230;10.518;2022-10-16T04:52:51;13.20;99.90
7002;DHT22;3541;53.230;10.518;2022-10-16T04:55:18;13.30;99.90
7002;DHT22;3541;53.230;10.518;2022-10-16T04:57:45;13.30;99.90
7002;DHT22;3541;53.230;10.518;2022-10-16T05:00:12;13.30;99.90
7002;DHT22;3541;53.230;10.518;2022-10-16T05:02:39;13.30;99.90
7002;DHT22;3541;53.230;10.518;2022-10-16T05:05:06;13.30;99.90
7002;DHT22;3541;53.230;10.518;2022-10-16T05:07:34;13.30;99.90
7002;DHT22;3541;53.230;10.518;2022-10-16T05:10:01;13.30;99.90
7002;DHT22;3541;53.230;10.518;2022-10-16T05:12:27;13.30;99.90
7002;DHT22;3541;53.230;10.518;2022-10-16T05:14:54;13.20;99.90
7002;DHT22;3541;53.230;10.518;2022-10-16T05:17:23;13.30;99.90
7002;DHT22;3541;53.230;10.518;2022-10-16T05:19:50;13.30;99.90
7002;DHT22;3541;53.230;10.518;2022-10-16T05:22:16;13.20;99.90
7002;DHT22;3541;53.230;10.518;2022-10-16T05:24:44;13.20;99.90
7002;DHT22;3541;53.230;10.518;2022-10-16T05:27:11;13.20;99.90
7002;DHT22;3541;53.230;10.518;2022-10-16T05:29:44;13.20;99.90
7002;DHT22;3541;53.230;10.518;2022-10-16T05:32:10;13.20;99.90
7002;DHT22;3541;53.230;10.518;2022-10-16T05:34:37;13.20;99.90
7002;DHT22;3541;53.230;10.518;2022-10-16T05:37:04;13.20;99.90
7002;DHT22;3541;53.230;10.518;2022-10-16T05:39:31;13.20;99.90
7002;DHT22;3541;53.230;10.518;2022-10-16T05:41:59;13.20;99.90
7002;DHT22;3541;53.230;10.518;2022-10-16T05:44:25;13.20;99.90
7002;DHT22;3541;53.230;10.518;2022-10-16T05:46:52;13.20;99.90
7002;DHT22;3541;53.230;10.518;2022-10-16T05:49:18;13.20;99.90
7002;DHT22;3541;53.230;10.518;2022-10-16T05:51:45;13.10;99.90
7002;DHT22;3541;53.230;10.518;2022-10-16T05:54:12;13.10;99.90
7002;DHT22;3541;53.230;10.518;2022-10-16T05:56:38;13.10;99.90
7002;DHT22;3541;53.230;10.518;2022-10-16T05:59:06;13.10;99.90
7002;DHT22;3541;53.230;10.518;2022-10-16T06:01:33;13.20;99.90
7002;DHT22;3541;53.230;10.518;2022-10-16T06:04:01;13.20;99.90
7002;DHT22;3541;53.230;10.518;2022-10-16T06:06:28;13.20;99.90
7002;DHT22;3541;53.230;10.518;2022-10-16T06:08:56;13.20;99.90
7002;DHT22;3541;53.230;10.518;2022-10-16T06:11:25;13.10;99.90
7002;DHT22;3541;53.230;10.518;2022-10-16T06:13:54;13.10;99.90
7002;DHT22;3541;53.230;10.518;2022-10-16T06:16:24;13.10;99.90
7002;DHT22;3541;53.230;10.518;2022-10-16T06:18:51;13.10;99.90
7002;DHT22;3541;53.230;10.518;2022-10-16T06:21:19;13.10;99.90
7002;DHT22;3541;53.230;10.518;2022-10-16T06:23:46;13.10;99.90
7002;DHT22;3541;53.230;10.518;2022-10-16T06:26:14;13.10;99.90
7002;DHT22;3541;53.230;10.518;2022-10-16T06:28:41;13.10;99.90
7002;DHT22;3541;53.230;10.518;2022-10-16T06:31:10;13.10;99.90
7002;DHT22;3541;53.230;10.518;2022-10-16T06:33:39;13.10;99.90
7002;DHT22;3541;53.230;10.518;2022-10-16T06:36:08;13.10;99.90
7002;DHT22;3541;53.230;10.518;2022-10-16T06:38:36;13.10;99.90
7002;DHT22;3541;53.230;10.518;2022-10-16T06:41:03;13.10;99.90
7002;DHT22;3541;53.230;10.518;2022-10-16T06:43:31;13.10;99.90
7002;DHT22;3541;53.230;10.518;2022-10-16T06:45:59;13.10;99.90
7002;DHT22;3541;53.230;10.518;2022-10-16T06:48:26;13.00;99.90
7002;DHT22;3541;53.230;10.518;2022-10-16T06:51:00;13.00;99.90
7002;DHT22;3541;53.230;10.518;2022-10-16T06:53:28;13.10;99.90
7002;DHT22;3541;53.230;10.518;2022-10-16T06:55:55;13.10;99.90
7002;DHT22;3541;53.230;10.518;2022-10-16T06:58:22;13.10;99.90
7002;DHT22;3541;53.230;10.518;2022-10-16T07:00:55;13.10;99.90
7002;DHT22;3541;53.230;10.518;2022-10-16T07:03:22;13.10;99.90
7002;DHT22;3541;53.230;10.518;2022-10-16T07:05:48;13.20;99.90
7002;DHT22;3541;53.230;10.518;2022-10-16T07:08:16;13.10;99.90
7002;DHT22;3541;53.230;10.518;2022-10-16T07:10:43;13.10;99.90
7002;DHT22;3541;53.230;10.518;2022-10-16T07:13:09;13.20;99.90
7002;DHT22;3541;53.230;10.518;2022-10-16T07:15:38;13.20;99.90
7002;DHT22;3541;53.230;10.518;2022-10-16T07:18:05;13.20;99.90
7002;DHT22;3541;53.230;10.518;2022-10-16T07:20:32;13.10;99.90
7002;DHT22;3541;53.230;10.518;2022-10-16T07:22:58;13.20;99.90
7002;DHT22;3541;53.230;10.518;2022-10-16T07:25:26;13.20;99.90
7002;DHT22;3541;53.230;10.518;2022-10-16T07:27:53;13.20;99.90
7002;DHT22;3541;53.230;10.518;2022-10-16T07:30:21;13.20;99.90
7002;DHT22;3541;53.230;10.518;2022-10-16T07:32:47;13.30;99.90
7002;DHT22;3541;53.230;10.518;2022-10-16T07:35:14;13.40;99.90
7002;DHT22;3541;53.230;10.518;2022-10-16T07:37:44;13.40;99.90
7002;DHT22;3541;53.230;10.518;2022-10-16T07:40:11;13.40;99.90
7002;DHT22;3541;53.230;10.518;2022-10-16T07:42:38;13.40;99.90
7002;DHT22;3541;53.230;10.518;2022-10-16T07:45:06;13.40;99.90
7002;DHT22;3541;53.230;10.518;2022-10-16T07:47:33;13.50;99.90
7002;DHT22;3541;53.230;10.518;2022-10-16T07:49:59;13.50;99.90
7002;DHT22;3541;53.230;10.518;2022-10-16T07:52:26;13.50;99.90
7002;DHT22;3541;53.230;10.518;2022-10-16T07:54:52;13.50;99.90
7002;DHT22;3541;53.230;10.518;2022-10-16T07:57:19;13.60;99.90
7002;DHT22;3541;53.230;10.518;2022-10-16T07:59:47;13.60;99.90
7002;DHT22;3541;53.230;10.518;2022-10-16T08:02:13;13.70;99.90
7002;DHT22;3541;53.230;10.518;2022-10-16T08:04:40;13.80;99.90
7002;DHT22;3541;53.230;10.518;2022-10-16T08:07:07;13.90;99.90
7002;DHT22;3541;53.230;10.518;2022-10-16T08:09:34;14.00;99.90
7002;DHT22;3541;53.230;10.518;2022-10-16T08:12:01;14.10;99.90
7002;DHT22;3541;53.230;10.518;2022-10-16T08:14:27;14.10;99.90
7002;DHT22;3541;53.230;10.518;2022-10-16T08:16:55;14.20;99.90
7002;DHT22;3541;53.230;10.518;2022-10-16T08:19:22;14.30;99.90
7002;DHT22;3541;53.230;10.518;2022-10-16T08:21:48;14.40;99.90
7002;DHT22;3541;53.230;10.518;2022-10-16T08:24:15;14.50;99.90
7002;DHT22;3541;53.230;10.518;2022-10-16T08:26:41;14.60;99.90
7002;DHT22;3541;53.230;10.518;2022-10-16T08:29:08;14.60;99.90
7002;DHT22;3541;53.230;10.518;2022-10-16T08:31:35;14.70;99.90
7002;DHT22;3541;53.230;10.518;2022-10-16T08:34:02;14.80;99.90
7002;DHT22;3541;53.230;10.518;2022-10-16T08:36:29;14.80;99.90
7002;DHT22;3541;53.230;10.518;2022-10-16T08:38:56;14.80;99.90
7002;DHT22;3541;53.230;10.518;2022-10-16T08:42:01;14.80;99.90
7002;DHT22;3541;53.230;10.518;2022-10-16T08:48:00;14.70;99.90
7002;DHT22;3541;53.230;10.518;2022-10-16T08:50:37;14.70;99.90
7002;DHT22;3541;53.230;10.518;2022-10-16T08:53:05;14.70;99.90
7002;DHT22;3541;53.230;10.518;2022-10-16T08:55:38;14.80;99.90
7002;DHT22;3541;53.230;10.518;2022-10-16T08:58:14;14.80;99.90
7002;DHT22;3541;53.230;10.518;2022-10-16T09:00:42;15.00;99.90
7002;DHT22;3541;53.230;10.518;2022-10-16T09:03:16;15.00;99.90
7002;DHT22;3541;53.230;10.518;2022-10-16T09:06:01;15.10;99.90
7002;DHT22;3541;53.230;10.518;2022-10-16T09:08:37;15.10;99.90
7002;DHT22;3541;53.230;10.518;2022-10-16T09:11:14;15.20;99.90
7002;DHT22;3541;53.230;10.518;2022-10-16T09:13:50;15.20;99.90
7002;DHT22;3541;53.230;10.518;2022-10-16T09:16:21;15.30;99.90
7002;DHT22;3541;53.230;10.518;2022-10-16T09:18:56;15.30;99.90
7002;DHT22;3541;53.230;10.518;2022-10-16T09:21:28;15.40;99.90
7002;DHT22;3541;53.230;10.518;2022-10-16T09:23:58;15.50;99.90
7002;DHT22;3541;53.230;10.518;2022-10-16T09:26:26;15.60;99.90
7002;DHT22;3541;53.230;10.518;2022-10-16T09:28:53;15.60;99.90
7002;DHT22;3541;53.230;10.518;2022-10-16T09:31:22;15.70;99.90
7002;DHT22;3541;53.230;10.518;2022-10-16T09:33:52;15.70;99.90
7002;DHT22;3541;53.230;10.518;2022-10-16T09:36:21;15.80;99.90
7002;DHT22;3541;53.230;10.518;2022-10-16T09:39:00;15.80;99.90
7002;DHT22;3541;53.230;10.518;2022-10-16T09:41:27;15.90;99.90
7002;DHT22;3541;53.230;10.518;2022-10-16T09:43:56;16.00;99.90
7002;DHT22;3541;53.230;10.518;2022-10-16T09:46:26;16.00;99.90
7002;DHT22;3541;53.230;10.518;2022-10-16T09:48:56;16.10;99.90
7002;DHT22;3541;53.230;10.518;2022-10-16T09:51:25;16.10;99.90
7002;DHT22;3541;53.230;10.518;2022-10-16T09:53:58;16.10;99.90
7002;DHT22;3541;53.230;10.518;2022-10-16T09:56:27;16.20;99.90
7002;DHT22;3541;53.230;10.518;2022-10-16T09:58:55;16.30;99.90
7002;DHT22;3541;53.230;10.518;2022-10-16T10:01:26;16.30;99.90
7002;DHT22;3541;53.230;10.518;2022-10-16T10:03:56;16.40;99.90
7002;DHT22;3541;53.230;10.518;2022-10-16T10:06:28;16.50;99.90
7002;DHT22;3541;53.230;10.518;2022-10-16T10:09:03;16.50;99.90
7002;DHT22;3541;53.230;10.518;2022-10-16T10:11:38;16.50;99.90
7002;DHT22;3541;53.230;10.518;2022-10-16T10:14:05;16.60;99.90
7002;DHT22;3541;53.230;10.518;2022-10-16T10:16:32;16.60;99.90
7002;DHT22;3541;53.230;10.518;2022-10-16T10:18:59;16.70;99.90
7002;DHT22;3541;53.230;10.518;2022-10-16T10:21:25;16.80;99.90
7002;DHT22;3541;53.230;10.518;2022-10-16T10:23:55;16.80;99.90
7002;DHT22;3541;53.230;10.518;2022-10-16T10:26:27;16.80;99.90
7002;DHT22;3541;53.230;10.518;2022-10-16T10:28:59;16.90;99.90
7002;DHT22;3541;53.230;10.518;2022-10-16T10:31:35;16.90;99.90
7002;DHT22;3541;53.230;10.518;2022-10-16T10:34:20;17.00;99.90
7002;DHT22;3541;53.230;10.518;2022-10-16T10:36:53;17.00;99.90
7002;DHT22;3541;53.230;10.518;2022-10-16T10:39:27;17.10;99.90
7002;DHT22;3541;53.230;10.518;2022-10-16T10:42:08;17.20;99.90
7002;DHT22;3541;53.230;10.518;2022-10-16T10:45:03;17.30;99.90
7002;DHT22;3541;53.230;10.518;2022-10-16T10:47:40;17.30;99.90
7002;DHT22;3541;53.230;10.518;2022-10-16T10:50:15;17.40;99.90
7002;DHT22;3541;53.230;10.518;2022-10-16T10:52:52;17.40;99.90
7002;DHT22;3541;53.230;10.518;2022-10-16T10:55:23;17.50;99.90
7002;DHT22;3541;53.230;10.518;2022-10-16T10:58:06;17.50;99.90
7002;DHT22;3541;53.230;10.518;2022-10-16T11:00:44;17.50;99.90
7002;DHT22;3541;53.230;10.518;2022-10-16T11:03:33;17.60;99.90
7002;DHT22;3541;53.230;10.518;2022-10-16T11:06:04;17.70;99.90
7002;DHT22;3541;53.230;10.518;2022-10-16T11:08:34;17.80;99.90
7002;DHT22;3541;53.230;10.518;2022-10-16T11:11:04;17.80;99.90
7002;DHT22;3541;53.230;10.518;2022-10-16T11:13:38;17.90;99.90
7002;DHT22;3541;53.230;10.518;2022-10-16T11:16:15;17.90;99.90
7002;DHT22;3541;53.230;10.518;2022-10-16T11:18:49;17.90;99.90
7002;DHT22;3541;53.230;10.518;2022-10-16T11:21:19;17.90;99.90
7002;DHT22;3541;53.230;10.518;2022-10-16T11:23:53;18.00;99.90
7002;DHT22;3541;53.230;10.518;2022-10-16T11:26:24;18.10;99.90
7002;DHT22;3541;53.230;10.518;2022-10-16T11:28:54;18.10;99.90
7002;DHT22;3541;53.230;10.518;2022-10-16T11:31:28;18.30;99.90
7002;DHT22;3541;53.230;10.518;2022-10-16T11:34:02;18.30;99.90
7002;DHT22;3541;53.230;10.518;2022-10-16T11:36:34;18.30;99.90
7002;DHT22;3541;53.230;10.518;2022-10-16T11:39:08;18.40;99.90
7002;DHT22;3541;53.230;10.518;2022-10-16T11:41:41;18.50;99.90
7002;DHT22;3541;53.230;10.518;2022-10-16T11:44:16;18.50;99.90
7002;DHT22;3541;53.230;10.518;2022-10-16T11:46:49;18.50;99.90
7002;DHT22;3541;53.230;10.518;2022-10-16T11:49:20;18.50;99.90
7002;DHT22;3541;53.230;10.518;2022-10-16T11:51:51;18.60;99.90
7002;DHT22;3541;53.230;10.518;2022-10-16T11:54:30;18.60;99.90
7002;DHT22;3541;53.230;10.518;2022-10-16T11:57:03;18.80;99.90
7002;DHT22;3541;53.230;10.518;2022-10-16T11:59:40;18.90;99.90
7002;DHT22;3541;53.230;10.518;2022-10-16T12:02:26;19.00;99.90
7002;DHT22;3541;53.230;10.518;2022-10-16T12:05:05;19.00;99.90
7002;DHT22;3541;53.230;10.518;2022-10-16T12:07:37;19.00;99.90
7002;DHT22;3541;53.230;10.518;2022-10-16T12:10:20;19.10;99.90
7002;DHT22;3541;53.230;10.518;2022-10-16T12:12:47;18.90;99.90
7002;DHT22;3541;53.230;10.518;2022-10-16T12:15:22;18.80;99.90
7002;DHT22;3541;53.230;10.518;2022-10-16T12:17:50;18.90;99.90
7002;DHT22;3541;53.230;10.518;2022-10-16T12:20:28;19.00;99.90
7002;DHT22;3541;53.230;10.518;2022-10-16T12:22:59;19.00;99.90
7002;DHT22;3541;53.230;10.518;2022-10-16T12:25:28;18.80;99.90
7002;DHT22;3541;53.230;10.518;2022-10-16T12:27:58;18.80;99.90
7002;DHT22;3541;53.230;10.518;2022-10-16T12:30:28;18.60;99.90
7002;DHT22;3541;53.230;10.518;2022-10-16T12:32:56;18.50;99.90
7002;DHT22;3541;53.230;10.518;2022-10-16T12:35:26;18.70;99.90
7002;DHT22;3541;53.230;10.518;2022-10-16T12:37:53;18.80;99.90
7002;DHT22;3541;53.230;10.518;2022-10-16T12:40:31;18.70;99.90
7002;DHT22;3541;53.230;10.518;2022-10-16T12:42:59;18.50;99.90
7002;DHT22;3541;53.230;10.518;2022-10-16T12:45:39;18.40;99.90
7002;DHT22;3541;53.230;10.518;2022-10-16T12:48:19;18.40;99.90
7002;DHT22;3541;53.230;10.518;2022-10-16T12:50:46;18.40;99.90
7002;DHT22;3541;53.230;10.518;2022-10-16T12:53:18;18.40;99.90
7002;DHT22;3541;53.230;10.518;2022-10-16T12:55:53;18.40;99.90
7002;DHT22;3541;53.230;10.518;2022-10-16T12:58:40;18.60;99.90
7002;DHT22;3541;53.230;10.518;2022-10-16T13:01:22;18.40;99.90
7002;DHT22;3541;53.230;10.518;2022-10-16T13:04:37;18.30;99.90
7002;DHT22;3541;53.230;10.518;2022-10-16T13:07:21;18.20;99.90
7002;DHT22;3541;53.230;10.518;2022-10-16T13:10:00;18.10;99.90
7002;DHT22;3541;53.230;10.518;2022-10-16T13:12:41;18.20;99.90
7002;DHT22;3541;53.230;10.518;2022-10-16T13:15:22;18.30;99.90
7002;DHT22;3541;53.230;10.518;2022-10-16T13:18:00;18.50;99.90
7002;DHT22;3541;53.230;10.518;2022-10-16T13:20:34;18.60;99.90
7002;DHT22;3541;53.230;10.518;2022-10-16T13:23:09;18.50;99.90
7002;DHT22;3541;53.230;10.518;2022-10-16T13:25:51;18.60;99.90
7002;DHT22;3541;53.230;10.518;2022-10-16T13:28:28;18.80;99.90
7002;DHT22;3541;53.230;10.518;2022-10-16T13:30:58;18.90;99.90
7002;DHT22;3541;53.230;10.518;2022-10-16T13:33:32;19.00;99.90
7002;DHT22;3541;53.230;10.518;2022-10-16T13:35:59;18.90;99.90
7002;DHT22;3541;53.230;10.518;2022-10-16T13:38:27;19.00;99.90
7002;DHT22;3541;53.230;10.518;2022-10-16T13:40:55;19.10;99.90
7002;DHT22;3541;53.230;10.518;2022-10-16T13:43:26;18.90;99.90
7002;DHT22;3541;53.230;10.518;2022-10-16T13:45:55;18.70;99.90
7002;DHT22;3541;53.230;10.518;2022-10-16T13:48:22;18.60;99.90
7002;DHT22;3541;53.230;10.518;2022-10-16T13:51:00;18.60;99.90
7002;DHT22;3541;53.230;10.518;2022-10-16T13:53:27;18.60;99.90
7002;DHT22;3541;53.230;10.518;2022-10-16T13:55:56;18.50;99.90
7002;DHT22;3541;53.230;10.518;2022-10-16T13:58:22;18.50;99.90
7002;DHT22;3541;53.230;10.518;2022-10-16T14:00:55;18.50;99.90
7002;DHT22;3541;53.230;10.518;2022-10-16T14:03:22;18.60;99.90
7002;DHT22;3541;53.230;10.518;2022-10-16T14:05:52;18.80;99.90
7002;DHT22;3541;53.230;10.518;2022-10-16T14:08:20;18.80;99.90
7002;DHT22;3541;53.230;10.518;2022-10-16T14:10:49;18.90;99.90
7002;DHT22;3541;53.230;10.518;2022-10-16T14:13:18;19.00;99.90
7002;DHT22;3541;53.230;10.518;2022-10-16T14:15:47;19.10;99.90
7002;DHT22;3541;53.230;10.518;2022-10-16T14:18:18;19.20;99.90
7002;DHT22;3541;53.230;10.518;2022-10-16T14:20:46;19.30;99.90
7002;DHT22;3541;53.230;10.518;2022-10-16T14:23:28;19.30;99.90
7002;DHT22;3541;53.230;10.518;2022-10-16T14:26:06;19.30;99.90
7002;DHT22;3541;53.230;10.518;2022-10-16T14:28:39;19.30;99.90
7002;DHT22;3541;53.230;10.518;2022-10-16T14:31:26;19.30;99.90
7002;DHT22;3541;53.230;10.518;2022-10-16T14:33:54;19.10;99.90
7002;DHT22;3541;53.230;10.518;2022-10-16T14:36:21;19.10;99.90
7002;DHT22;3541;53.230;10.518;2022-10-16T14:38:57;19.20;99.90
7002;DHT22;3541;53.230;10.518;2022-10-16T14:41:24;19.20;99.90
7002;DHT22;3541;53.230;10.518;2022-10-16T14:43:53;19.30;99.90
7002;DHT22;3541;53.230;10.518;2022-10-16T14:46:22;19.40;99.90
7002;DHT22;3541;53.230;10.518;2022-10-16T14:48:58;19.40;99.90
7002;DHT22;3541;53.230;10.518;2022-10-16T14:51:26;19.50;99.90
7002;DHT22;3541;53.230;10.518;2022-10-16T14:53:54;19.50;99.90
7002;DHT22;3541;53.230;10.518;2022-10-16T14:56:23;19.40;99.90
7002;DHT22;3541;53.230;10.518;2022-10-16T14:58:51;19.30;99.90
7002;DHT22;3541;53.230;10.518;2022-10-16T15:01:18;19.30;99.90
7002;DHT22;3541;53.230;10.518;2022-10-16T15:03:46;19.40;99.90
7002;DHT22;3541;53.230;10.518;2022-10-16T15:06:14;19.40;99.90
7002;DHT22;3541;53.230;10.518;2022-10-16T15:08:41;19.50;99.90
7002;DHT22;3541;53.230;10.518;2022-10-16T15:11:11;19.60;99.90
7002;DHT22;3541;53.230;10.518;2022-10-16T15:13:38;19.50;99.90
7002;DHT22;3541;53.230;10.518;2022-10-16T15:16:09;19.60;99.90
7002;DHT22;3541;53.230;10.518;2022-10-16T15:18:36;19.70;99.90
7002;DHT22;3541;53.230;10.518;2022-10-16T15:21:03;19.80;99.90
7002;DHT22;3541;53.230;10.518;2022-10-16T15:23:30;19.90;99.90
7002;DHT22;3541;53.230;10.518;2022-10-16T15:25:56;20.00;99.90
7002;DHT22;3541;53.230;10.518;2022-10-16T15:28:25;20.10;99.90
7002;DHT22;3541;53.230;10.518;2022-10-16T15:30:53;20.20;99.90
7002;DHT22;3541;53.230;10.518;2022-10-16T15:33:21;20.50;99.90
7002;DHT22;3541;53.230;10.518;2022-10-16T15:35:50;20.70;99.90
7002;DHT22;3541;53.230;10.518;2022-10-16T15:38:18;20.70;99.90
7002;DHT22;3541;53.230;10.518;2022-10-16T15:40:45;20.80;99.90
7002;DHT22;3541;53.230;10.518;2022-10-16T15:43:12;20.80;99.90
7002;DHT22;3541;53.230;10.518;2022-10-16T15:45:40;21.00;99.90
7002;DHT22;3541;53.230;10.518;2022-10-16T15:48:10;21.20;99.90
7002;DHT22;3541;53.230;10.518;2022-10-16T15:50:37;21.60;99.90
7002;DHT22;3541;53.230;10.518;2022-10-16T15:53:04;22.00;99.90
7002;DHT22;3541;53.230;10.518;2022-10-16T15:55:31;22.20;99.90
7002;DHT22;3541;53.230;10.518;2022-10-16T15:57:57;22.10;99.90
7002;DHT22;3541;53.230;10.518;2022-10-16T16:00:24;22.00;99.90
7002;DHT22;3541;53.230;10.518;2022-10-16T16:02:53;21.50;99.90
7002;DHT22;3541;53.230;10.518;2022-10-16T16:05:21;20.80;99.90